Aviation Digital Data Service (ADDS)

Output produced by METARs form (1845 UTC 26 March 2017)
found at http://aviationweather.gov/adds/metars/
 
KSLK 261737Z 2618/2718 08008KT P6SM OVC045 
     FM270000 10007KT P6SM OVC035 
     FM270300 14007KT 4SM -RA BR OVC025 
     FM270700 20008KT 3SM -RA BR OVC018 
     FM271300 18007KT 3SM -RA BR OVC007